Sacramento, California
Traffic Map
Current Weather Conditions
Sacramento, California
Clear
Clear
17°
Feels Like: 17°
Wind Chill: 17° Ceiling: Unl
Heat Index: 17° Visibility: 10mi
Dew Point: 13° Wind: 0mph
Humidity: 78% Direction: ° ()
Pressure: 29.95in Gusts: 0mph
Raw Report DataKSAC 301553Z AUTO 00000KT 10SM CLR 17/13 A2995 RMK AO2 SLP140 T01670128 TSNO
Traffic Incident Summary
Active as of:
Severity:
Category:
InformationThere was an issue retrieving the traffic information for this location. Please try a different location or try again shortly.
Advertisements
Track Severe Weather on mobile